Arklow Wind — EIKZ — position and weather

sailwx.info

Track history (hours):
 
Tides and Currents Weather Stations Pressure Air Temp Water Temp Dewpoint Dewpoint Depression Visibility Wind Speed Wind Dir Waves Ship Positions

Arklow Wind

Last reported at 2017-Jan-19 18:32 UTC. Time now 2017-Jan-19 19:06 UTC.
Position N 38°35' W 010°02'.

Length 136 m; draft 7.8 m.

Type: Cargo ship. MMSI: 250506000.

Date/timePositionNaut miles runAvg speedWind from/ knotsBaromVisibWave heightAir tempDewpointWater temp
2017-Jan-19 18:32N 38°35' W 010°02'1010.1
2017-Jan-19 17:33N 38°44' W 010°05'1010.2
2017-Jan-19 16:33N 38°54' W 010°06'1310.3
2017-Jan-19 15:20N 39°07' W 010°07'911.7
2017-Jan-19 14:33N 39°16' W 010°07'  
2017-Jan-14 05:25N 50°31' W 002°12'6 6.7
2017-Jan-14 04:32N 50°30' W 002°03'8 8.3
2017-Jan-14 03:34N 50°30' W 001°50'4912.1
2017-Jan-13 23:33N 50°31' W 000°34'1010.6
2017-Jan-13 22:33N 50°31' W 000°18'9 9.5
2017-Jan-13 21:33N 50°32' W 000°03'10 9.8
2017-Jan-13 20:33N 50°35' E 000°12'1111.5
2017-Jan-13 19:34N 50°38' E 000°30'1414.2
2017-Jan-13 18:33N 50°45' E 000°48'1515.3
2017-Jan-13 17:33N 50°54' E 001°09'1514.9
2017-Jan-13 16:33N 51°04' E 001°26'1212.4
2017-Jan-13 15:33N 51°11' E 001°42'1111.1
2017-Jan-13 14:33N 51°20' E 001°52'1010.2
2017-Jan-13 13:33N 51°28' E 002°02'1110.6
2017-Jan-13 12:33N 51°36' E 002°13'  
Track history (hours):
 
Tides and Currents Weather Stations Pressure Air Temp Water Temp Dewpoint Dewpoint Depression Visibility Wind Speed Wind Dir Waves Ship Positions

Arklow Wind

Last reported at 2017-Jan-19 18:32 UTC. Time now 2017-Jan-19 19:06 UTC.
Position N 38°35' W 010°02'.

Length 136 m; draft 7.8 m.

Type: Cargo ship. MMSI: 250506000.

Date/timePositionNaut miles runAvg speedWind from/ knotsBaromVisibWave heightAir tempDewpointWater temp
2017-Jan-19 18:32N 38°35' W 010°02'1010.1
2017-Jan-19 17:33N 38°44' W 010°05'1010.2
2017-Jan-19 16:33N 38°54' W 010°06'1310.3
2017-Jan-19 15:20N 39°07' W 010°07'911.7
2017-Jan-19 14:33N 39°16' W 010°07'  
2017-Jan-14 05:25N 50°31' W 002°12'6 6.7
2017-Jan-14 04:32N 50°30' W 002°03'8 8.3
2017-Jan-14 03:34N 50°30' W 001°50'4912.1
2017-Jan-13 23:33N 50°31' W 000°34'1010.6
2017-Jan-13 22:33N 50°31' W 000°18'9 9.5
2017-Jan-13 21:33N 50°32' W 000°03'10 9.8
2017-Jan-13 20:33N 50°35' E 000°12'1111.5
2017-Jan-13 19:34N 50°38' E 000°30'1414.2
2017-Jan-13 18:33N 50°45' E 000°48'1515.3
2017-Jan-13 17:33N 50°54' E 001°09'1514.9
2017-Jan-13 16:33N 51°04' E 001°26'1212.4
2017-Jan-13 15:33N 51°11' E 001°42'1111.1
2017-Jan-13 14:33N 51°20' E 001°52'1010.2
2017-Jan-13 13:33N 51°28' E 002°02'1110.6
2017-Jan-13 12:33N 51°36' E 002°13'  

Dump ship's entire track history